createdAt,value
2022-11-08T00:04:02.862Z,88.70
2022-11-08T00:09:29.496Z,88.72
2022-11-08T00:14:37.396Z,88.79
2022-11-08T00:19:45.674Z,89.04
2022-11-08T00:24:55.474Z,89.47
2022-11-08T00:30:03.591Z,89.52
2022-11-08T00:35:11.204Z,89.48
2022-11-08T00:40:19.287Z,89.58
2022-11-08T00:45:25.947Z,89.59
2022-11-08T00:50:32.208Z,89.40
2022-11-08T00:55:39.934Z,89.58
2022-11-08T01:00:46.522Z,89.24
2022-11-08T01:05:55.542Z,89.08
2022-11-08T01:11:06.618Z,89.52
2022-11-08T01:16:16.357Z,89.77
2022-11-08T01:21:23.468Z,89.98
2022-11-08T01:26:32.097Z,90.06
2022-11-08T01:31:38.305Z,89.97
2022-11-08T01:36:45.194Z,90.43
2022-11-08T01:41:53.179Z,91.08
2022-11-08T01:46:59.415Z,90.98
2022-11-08T01:52:24.638Z,91.13
2022-11-08T01:57:38.277Z,90.93
2022-11-08T02:02:47.461Z,91.06
2022-11-08T02:07:56.459Z,91.15
2022-11-08T02:13:05.881Z,90.79
2022-11-08T02:18:16.111Z,90.81
2022-11-08T02:23:28.861Z,90.91
2022-11-08T02:28:42.237Z,90.88
2022-11-08T02:33:49.549Z,90.79
2022-11-08T02:38:59.408Z,91.43
2022-11-08T02:44:07.116Z,91.33
2022-11-08T02:49:13.184Z,91.47
2022-11-08T02:54:19.228Z,91.52
2022-11-08T02:59:26.658Z,91.54
2022-11-08T03:04:32.878Z,91.28
2022-11-08T03:09:39.028Z,91.25
2022-11-08T03:14:46.782Z,91.22
2022-11-08T03:19:53.998Z,91.19
2022-11-08T03:25:00.128Z,91.20
2022-11-08T03:30:09.933Z,91.07
2022-11-08T03:35:16.532Z,90.82
2022-11-08T03:40:23.124Z,90.82
2022-11-08T03:45:30.636Z,90.46
2022-11-08T03:50:37.003Z,90.31
2022-11-08T03:55:43.258Z,89.75
2022-11-08T04:00:50.962Z,89.85
2022-11-08T04:06:01.076Z,89.97
2022-11-08T04:11:21.248Z,89.71
2022-11-08T04:16:28.932Z,89.73
2022-11-08T04:21:35.060Z,90.33
2022-11-08T04:26:42.203Z,90.06
2022-11-08T04:31:49.684Z,90.24
2022-11-08T04:36:55.913Z,90.23
2022-11-08T04:42:02.595Z,90.57
2022-11-08T04:47:10.506Z,90.53
2022-11-08T04:52:18.363Z,90.59
2022-11-08T04:57:24.380Z,90.76
2022-11-08T05:02:32.198Z,90.57
2022-11-08T05:07:38.828Z,90.29
2022-11-08T05:12:45.067Z,90.29
2022-11-08T05:17:53.080Z,90.50
2022-11-08T05:23:20.659Z,90.27
2022-11-08T05:28:26.795Z,90.52
2022-11-08T05:33:34.555Z,90.36
2022-11-08T05:38:42.472Z,90.19
2022-11-08T05:43:51.967Z,90.48
2022-11-08T05:48:59.564Z,90.30
2022-11-08T05:54:05.967Z,90.91
2022-11-08T05:59:12.365Z,90.45
2022-11-08T06:04:20.100Z,90.86
2022-11-08T06:09:26.532Z,90.77
2022-11-08T06:14:32.822Z,91.06
2022-11-08T06:19:40.546Z,91.00
2022-11-08T06:24:46.808Z,91.53
2022-11-08T06:29:52.979Z,91.49
2022-11-08T06:35:00.669Z,91.56
2022-11-08T06:40:08.314Z,91.11
2022-11-08T06:45:14.784Z,91.46
2022-11-08T06:50:22.474Z,91.19
2022-11-08T06:55:28.887Z,91.19
2022-11-08T07:00:35.148Z,91.19
2022-11-08T07:05:42.626Z,91.22
2022-11-08T07:10:48.939Z,90.78
2022-11-08T07:15:58.243Z,90.87
2022-11-08T07:21:06.103Z,90.44
2022-11-08T07:26:13.494Z,90.55
2022-11-08T07:31:19.521Z,90.13
2022-11-08T07:36:27.260Z,90.14
2022-11-08T07:41:33.315Z,90.16
2022-11-08T07:46:39.429Z,90.30
2022-11-08T07:51:47.027Z,89.76
2022-11-08T07:56:55.544Z,89.42
2022-11-08T08:02:26.462Z,89.09
2022-11-08T08:07:59.337Z,88.82
2022-11-08T08:13:06.800Z,88.65
2022-11-08T08:18:41.326Z,88.57
2022-11-08T08:24:13.488Z,88.45
2022-11-08T08:29:37.771Z,88.24
2022-11-08T08:34:56.059Z,88.04
2022-11-08T08:40:19.038Z,87.67
2022-11-08T08:45:37.497Z,87.62
2022-11-08T08:50:44.403Z,87.45
2022-11-08T08:56:13.053Z,87.61
2022-11-08T09:01:41.465Z,87.27
2022-11-08T09:06:47.808Z,87.53
2022-11-08T09:11:57.957Z,87.36
2022-11-08T09:17:04.131Z,86.72
2022-11-08T09:22:10.444Z,86.75
2022-11-08T09:27:18.272Z,86.41
2022-11-08T09:32:46.357Z,86.26
2022-11-08T09:37:53.990Z,85.70
2022-11-08T09:43:27.862Z,85.73
2022-11-08T09:48:38.489Z,86.11
2022-11-08T09:53:51.987Z,85.27
2022-11-08T09:59:04.192Z,84.96
2022-11-08T10:04:17.704Z,84.98
2022-11-08T10:09:49.052Z,84.76
2022-11-08T10:15:17.221Z,84.59
2022-11-08T10:20:39.235Z,84.34
2022-11-08T10:25:50.159Z,83.59
2022-11-08T10:30:58.305Z,83.55
2022-11-08T10:36:11.801Z,83.11
2022-11-08T10:41:23.689Z,83.17
2022-11-08T10:46:42.136Z,83.14
2022-11-08T10:51:51.898Z,82.68
2022-11-08T10:56:58.117Z,82.60
2022-11-08T11:02:17.766Z,82.87
2022-11-08T11:07:34.159Z,81.76
2022-11-08T11:12:40.525Z,81.45
2022-11-08T11:17:48.851Z,81.08
2022-11-08T11:22:55.744Z,81.14
2022-11-08T11:28:02.921Z,81.07
2022-11-08T11:33:26.308Z,80.93
2022-11-08T11:38:45.717Z,81.13
2022-11-08T11:44:06.506Z,81.01
2022-11-08T11:49:22.942Z,80.86
2022-11-08T11:54:32.836Z,80.82
2022-11-08T12:00:02.453Z,80.56
2022-11-08T12:05:40.148Z,80.78
2022-11-08T12:11:18.362Z,80.50
2022-11-08T12:16:35.049Z,79.83
2022-11-08T12:21:51.913Z,79.40
2022-11-08T12:27:08.827Z,79.93
2022-11-08T12:32:42.944Z,80.05
2022-11-08T12:38:09.035Z,79.47
2022-11-08T12:43:31.638Z,78.92
2022-11-08T12:49:07.594Z,79.02
2022-11-08T12:54:30.635Z,78.58
2022-11-08T12:59:42.830Z,78.79
2022-11-08T13:05:03.493Z,79.66
2022-11-08T13:10:24.568Z,79.73
2022-11-08T13:15:30.988Z,79.81
2022-11-08T13:20:45.080Z,79.25
2022-11-08T13:25:55.087Z,79.51
2022-11-08T13:31:11.391Z,80.11
2022-11-08T13:36:34.924Z,80.98
2022-11-08T13:42:04.988Z,80.79
2022-11-08T13:47:53.713Z,81.20
2022-11-08T13:53:10.564Z,80.39
2022-11-08T13:58:37.621Z,79.26
2022-11-08T14:04:25.425Z,79.14
2022-11-08T14:09:44.864Z,79.44
2022-11-08T14:15:05.517Z,79.42
2022-11-08T14:20:35.335Z,79.93
2022-11-08T14:25:42.609Z,79.57
2022-11-08T14:30:51.862Z,80.09
2022-11-08T14:36:01.775Z,81.07
2022-11-08T14:41:09.077Z,81.50
2022-11-08T14:46:30.636Z,82.38
2022-11-08T14:51:37.678Z,82.61
2022-11-08T14:56:46.133Z,82.70
2022-11-08T15:01:54.398Z,82.74
2022-11-08T15:07:02.166Z,83.55
2022-11-08T15:12:16.996Z,83.83
2022-11-08T15:17:37.480Z,84.11
2022-11-08T15:22:47.097Z,83.66
2022-11-08T15:27:57.451Z,84.21
2022-11-08T15:33:06.315Z,83.79
2022-11-08T15:38:31.375Z,83.79
2022-11-08T15:43:43.265Z,83.94
2022-11-08T15:49:00.811Z,83.51
2022-11-08T15:54:08.987Z,83.60
2022-11-08T15:59:21.657Z,83.61
2022-11-08T16:04:31.051Z,83.51
2022-11-08T16:09:39.047Z,83.57
2022-11-08T16:14:48.267Z,83.06
2022-11-08T16:19:57.647Z,82.93
2022-11-08T16:25:06.026Z,83.21
2022-11-08T16:30:18.738Z,83.19
2022-11-08T16:35:28.372Z,83.20
2022-11-08T16:40:35.640Z,83.66
2022-11-08T16:46:04.370Z,83.62
2022-11-08T16:51:20.199Z,83.70
2022-11-08T16:56:27.485Z,83.66
2022-11-08T17:01:37.987Z,83.56
2022-11-08T17:06:46.602Z,83.72
2022-11-08T17:11:54.932Z,83.67
2022-11-08T17:17:02.435Z,83.51
2022-11-08T17:22:11.855Z,83.29
2022-11-08T17:27:20.943Z,83.33
2022-11-08T17:32:27.718Z,83.24
2022-11-08T17:37:37.303Z,83.06
2022-11-08T17:42:45.644Z,82.82
2022-11-08T17:47:52.775Z,82.62
2022-11-08T17:53:01.933Z,82.79
2022-11-08T17:58:08.843Z,82.64
2022-11-08T18:03:20.720Z,82.30
2022-11-08T18:08:32.171Z,82.42
2022-11-08T18:13:40.384Z,82.87
2022-11-08T18:18:48.949Z,82.46
2022-11-08T18:24:00.451Z,82.78
2022-11-08T18:29:09.181Z,82.17
2022-11-08T18:34:16.453Z,82.87
2022-11-08T18:39:25.497Z,82.15
2022-11-08T18:44:32.759Z,81.92
2022-11-08T18:49:40.669Z,81.99
2022-11-08T18:54:49.592Z,82.71
2022-11-08T19:00:01.229Z,82.78
2022-11-08T19:05:12.269Z,82.14
2022-11-08T19:10:23.350Z,82.36
2022-11-08T19:15:30.290Z,82.05
2022-11-08T19:20:38.329Z,82.14
2022-11-08T19:25:55.257Z,81.71
2022-11-08T19:31:05.284Z,82.16
2022-11-08T19:36:18.273Z,81.63
2022-11-08T19:41:30.596Z,82.18
2022-11-08T19:46:39.826Z,81.47
2022-11-08T19:51:47.830Z,81.47
2022-11-08T19:57:05.233Z,81.92
2022-11-08T20:02:13.980Z,81.24
2022-11-08T20:07:21.370Z,81.26
2022-11-08T20:12:33.469Z,81.71
2022-11-08T20:17:40.463Z,81.70
2022-11-08T20:22:49.186Z,82.21
2022-11-08T20:27:59.143Z,81.92
2022-11-08T20:33:13.769Z,82.84
2022-11-08T20:38:21.387Z,83.05
2022-11-08T20:43:30.907Z,83.09
2022-11-08T20:48:42.788Z,83.13
2022-11-08T20:53:51.273Z,83.74
2022-11-08T20:59:00.204Z,84.25
2022-11-08T21:04:09.381Z,84.18
2022-11-08T21:09:49.853Z,84.59
2022-11-08T21:14:52.633Z,84.66
2022-11-08T21:19:59.896Z,85.71
2022-11-08T21:25:08.351Z,85.54
2022-11-08T21:30:18.187Z,85.58
2022-11-08T21:35:25.847Z,85.44
2022-11-08T21:40:33.034Z,85.46
2022-11-08T21:45:41.899Z,85.88
2022-11-08T21:50:48.917Z,85.80
2022-11-08T21:55:59.586Z,85.78
2022-11-08T22:01:11.318Z,85.79
2022-11-08T22:06:18.266Z,85.52
2022-11-08T22:11:25.067Z,85.32
2022-11-08T22:16:32.701Z,85.53
2022-11-08T22:21:43.570Z,86.44
2022-11-08T22:26:51.107Z,86.38
2022-11-08T22:31:59.324Z,86.56
2022-11-08T22:37:05.524Z,86.17
2022-11-08T22:42:11.838Z,85.99
2022-11-08T22:47:19.560Z,85.93
2022-11-08T22:52:25.930Z,85.75
2022-11-08T22:57:32.356Z,85.49
2022-11-08T23:02:39.993Z,85.66
2022-11-08T23:07:46.333Z,85.86
2022-11-08T23:13:22.012Z,86.01
2022-11-08T23:18:30.043Z,86.08
2022-11-08T23:23:54.165Z,86.23
2022-11-08T23:29:17.642Z,86.32
2022-11-08T23:34:25.368Z,86.46
2022-11-08T23:39:31.645Z,86.85
2022-11-08T23:44:37.787Z,86.67
2022-11-08T23:49:45.098Z,86.70
2022-11-08T23:54:51.123Z,86.60
2022-11-08T23:59:57.498Z,86.64
